sensor_id;sensor_type;location;lat;lon;timestamp;temperature;humidity
20744;DHT22;56303;52.160;-0.428;2023-04-04T00:00:32;3.70;99.90
20744;DHT22;56303;52.160;-0.428;2023-04-04T00:02:59;3.70;99.90
20744;DHT22;56303;52.160;-0.428;2023-04-04T00:05:26;4.00;99.90
20744;DHT22;56303;52.160;-0.428;2023-04-04T00:07:54;3.60;99.90
20744;DHT22;56303;52.160;-0.428;2023-04-04T00:10:20;3.80;99.90
20744;DHT22;56303;52.160;-0.428;2023-04-04T00:12:47;3.80;99.90
20744;DHT22;56303;52.160;-0.428;2023-04-04T00:15:14;3.80;99.90
20744;DHT22;56303;52.160;-0.428;2023-04-04T00:17:41;4.00;99.90
20744;DHT22;56303;52.160;-0.428;2023-04-04T00:20:09;3.50;99.90
20744;DHT22;56303;52.160;-0.428;2023-04-04T00:22:36;3.50;99.90
20744;DHT22;56303;52.160;-0.428;2023-04-04T00:25:03;3.30;99.90
20744;DHT22;56303;52.160;-0.428;2023-04-04T00:27:30;3.40;99.90
20744;DHT22;56303;52.160;-0.428;2023-04-04T00:29:57;3.50;99.90
20744;DHT22;56303;52.160;-0.428;2023-04-04T00:32:23;3.90;99.90
20744;DHT22;56303;52.160;-0.428;2023-04-04T00:34:54;4.10;99.90
20744;DHT22;56303;52.160;-0.428;2023-04-04T00:37:22;4.10;99.90
20744;DHT22;56303;52.160;-0.428;2023-04-04T00:39:49;4.20;99.90
20744;DHT22;56303;52.160;-0.428;2023-04-04T00:42:16;4.20;99.90
20744;DHT22;56303;52.160;-0.428;2023-04-04T00:44:43;4.20;99.90
20744;DHT22;56303;52.160;-0.428;2023-04-04T00:47:10;2.70;99.90
20744;DHT22;56303;52.160;-0.428;2023-04-04T00:49:37;4.20;99.90
20744;DHT22;56303;52.160;-0.428;2023-04-04T00:52:04;4.20;99.90
20744;DHT22;56303;52.160;-0.428;2023-04-04T00:54:33;4.30;99.90
20744;DHT22;56303;52.160;-0.428;2023-04-04T00:57:02;4.20;99.90
20744;DHT22;56303;52.160;-0.428;2023-04-04T00:59:31;4.10;99.90
20744;DHT22;56303;52.160;-0.428;2023-04-04T01:01:59;4.20;99.90
20744;DHT22;56303;52.160;-0.428;2023-04-04T01:04:26;4.10;99.90
20744;DHT22;56303;52.160;-0.428;2023-04-04T01:06:55;4.80;99.90
20744;DHT22;56303;52.160;-0.428;2023-04-04T01:09:22;3.90;99.90
20744;DHT22;56303;52.160;-0.428;2023-04-04T01:11:49;3.50;99.90
20744;DHT22;56303;52.160;-0.428;2023-04-04T01:14:16;3.50;99.90
20744;DHT22;56303;52.160;-0.428;2023-04-04T01:16:44;3.40;99.90
20744;DHT22;56303;52.160;-0.428;2023-04-04T01:19:21;3.30;99.90
20744;DHT22;56303;52.160;-0.428;2023-04-04T01:21:51;3.20;99.90
20744;DHT22;56303;52.160;-0.428;2023-04-04T01:24:21;3.10;99.90
20744;DHT22;56303;52.160;-0.428;2023-04-04T01:26:49;3.20;99.90
20744;DHT22;56303;52.160;-0.428;2023-04-04T01:29:17;3.00;99.90
20744;DHT22;56303;52.160;-0.428;2023-04-04T01:32:08;2.90;99.90
20744;DHT22;56303;52.160;-0.428;2023-04-04T01:37:29;3.00;99.90
20744;DHT22;56303;52.160;-0.428;2023-04-04T01:40:25;2.80;99.90
20744;DHT22;56303;52.160;-0.428;2023-04-04T01:42:54;2.90;99.90
20744;DHT22;56303;52.160;-0.428;2023-04-04T01:45:23;3.50;99.90
20744;DHT22;56303;52.160;-0.428;2023-04-04T01:47:49;3.00;99.90
20744;DHT22;56303;52.160;-0.428;2023-04-04T01:50:17;2.90;99.90
20744;DHT22;56303;52.160;-0.428;2023-04-04T01:52:44;3.00;99.90
20744;DHT22;56303;52.160;-0.428;2023-04-04T01:55:11;3.10;99.90
20744;DHT22;56303;52.160;-0.428;2023-04-04T01:57:38;3.50;99.90
20744;DHT22;56303;52.160;-0.428;2023-04-04T02:00:05;3.30;99.90
20744;DHT22;56303;52.160;-0.428;2023-04-04T02:02:33;3.30;99.90
20744;DHT22;56303;52.160;-0.428;2023-04-04T02:04:59;3.40;99.90
20744;DHT22;56303;52.160;-0.428;2023-04-04T02:07:27;3.40;99.90
20744;DHT22;56303;52.160;-0.428;2023-04-04T02:09:54;3.10;99.90
20744;DHT22;56303;52.160;-0.428;2023-04-04T02:12:21;3.10;99.90
20744;DHT22;56303;52.160;-0.428;2023-04-04T02:14:48;2.90;99.90
20744;DHT22;56303;52.160;-0.428;2023-04-04T02:17:15;2.70;99.90
20744;DHT22;56303;52.160;-0.428;2023-04-04T02:19:42;3.00;99.90
20744;DHT22;56303;52.160;-0.428;2023-04-04T02:22:09;2.50;99.90
20744;DHT22;56303;52.160;-0.428;2023-04-04T02:24:36;2.50;99.90
20744;DHT22;56303;52.160;-0.428;2023-04-04T02:27:04;2.70;99.90
20744;DHT22;56303;52.160;-0.428;2023-04-04T02:29:32;2.70;99.90
20744;DHT22;56303;52.160;-0.428;2023-04-04T02:31:58;2.80;99.90
20744;DHT22;56303;52.160;-0.428;2023-04-04T02:34:26;2.80;99.90
20744;DHT22;56303;52.160;-0.428;2023-04-04T02:36:53;2.80;99.90
20744;DHT22;56303;52.160;-0.428;2023-04-04T02:39:20;2.90;99.90
20744;DHT22;56303;52.160;-0.428;2023-04-04T02:41:46;2.90;99.90
20744;DHT22;56303;52.160;-0.428;2023-04-04T02:44:13;3.10;99.90
20744;DHT22;56303;52.160;-0.428;2023-04-04T02:46:40;3.10;99.90
20744;DHT22;56303;52.160;-0.428;2023-04-04T02:49:07;3.00;99.90
20744;DHT22;56303;52.160;-0.428;2023-04-04T02:51:34;2.90;99.90
20744;DHT22;56303;52.160;-0.428;2023-04-04T02:54:01;2.80;99.90
20744;DHT22;56303;52.160;-0.428;2023-04-04T02:56:28;2.90;99.90
20744;DHT22;56303;52.160;-0.428;2023-04-04T02:58:55;3.00;99.90
20744;DHT22;56303;52.160;-0.428;2023-04-04T03:01:22;3.20;99.90
20744;DHT22;56303;52.160;-0.428;2023-04-04T03:03:49;3.30;99.90
20744;DHT22;56303;52.160;-0.428;2023-04-04T03:06:15;3.30;99.90
20744;DHT22;56303;52.160;-0.428;2023-04-04T03:08:42;3.10;99.90
20744;DHT22;56303;52.160;-0.428;2023-04-04T03:11:09;3.50;99.90
20744;DHT22;56303;52.160;-0.428;2023-04-04T03:13:36;2.80;99.90
20744;DHT22;56303;52.160;-0.428;2023-04-04T03:16:04;2.70;99.90
20744;DHT22;56303;52.160;-0.428;2023-04-04T03:18:33;2.40;99.90
20744;DHT22;56303;52.160;-0.428;2023-04-04T03:21:00;2.60;99.90
20744;DHT22;56303;52.160;-0.428;2023-04-04T03:23:27;2.20;99.90
20744;DHT22;56303;52.160;-0.428;2023-04-04T03:25:54;3.50;99.90
20744;DHT22;56303;52.160;-0.428;2023-04-04T03:28:21;2.10;99.90
20744;DHT22;56303;52.160;-0.428;2023-04-04T03:30:48;2.20;99.90
20744;DHT22;56303;52.160;-0.428;2023-04-04T03:33:15;2.30;99.90
20744;DHT22;56303;52.160;-0.428;2023-04-04T03:35:43;2.30;99.90
20744;DHT22;56303;52.160;-0.428;2023-04-04T03:38:10;2.30;99.90
20744;DHT22;56303;52.160;-0.428;2023-04-04T03:40:36;2.00;99.90
20744;DHT22;56303;52.160;-0.428;2023-04-04T03:43:06;2.10;99.90
20744;DHT22;56303;52.160;-0.428;2023-04-04T03:45:33;1.40;99.90
20744;DHT22;56303;52.160;-0.428;2023-04-04T03:48:01;1.50;99.90
20744;DHT22;56303;52.160;-0.428;2023-04-04T03:50:29;1.30;99.90
20744;DHT22;56303;52.160;-0.428;2023-04-04T03:52:56;1.30;99.90
20744;DHT22;56303;52.160;-0.428;2023-04-04T03:55:24;1.60;99.90
20744;DHT22;56303;52.160;-0.428;2023-04-04T03:57:52;1.90;99.90
20744;DHT22;56303;52.160;-0.428;2023-04-04T04:00:19;2.30;99.90
20744;DHT22;56303;52.160;-0.428;2023-04-04T04:02:46;2.30;99.90
20744;DHT22;56303;52.160;-0.428;2023-04-04T04:05:13;2.30;99.90
20744;DHT22;56303;52.160;-0.428;2023-04-04T04:07:42;2.40;99.90
20744;DHT22;56303;52.160;-0.428;2023-04-04T04:10:10;2.20;99.90
20744;DHT22;56303;52.160;-0.428;2023-04-04T04:12:37;1.90;99.90
20744;DHT22;56303;52.160;-0.428;2023-04-04T04:15:05;1.60;99.90
20744;DHT22;56303;52.160;-0.428;2023-04-04T04:17:31;1.50;99.90
20744;DHT22;56303;52.160;-0.428;2023-04-04T04:19:58;1.60;99.90
20744;DHT22;56303;52.160;-0.428;2023-04-04T04:22:25;1.70;99.90
20744;DHT22;56303;52.160;-0.428;2023-04-04T04:24:52;1.70;99.90
20744;DHT22;56303;52.160;-0.428;2023-04-04T04:27:19;1.70;99.90
20744;DHT22;56303;52.160;-0.428;2023-04-04T04:29:46;1.90;99.90
20744;DHT22;56303;52.160;-0.428;2023-04-04T04:32:16;2.00;99.90
20744;DHT22;56303;52.160;-0.428;2023-04-04T04:34:43;2.30;99.90
20744;DHT22;56303;52.160;-0.428;2023-04-04T04:37:10;2.40;99.90
20744;DHT22;56303;52.160;-0.428;2023-04-04T04:39:37;2.20;99.90
20744;DHT22;56303;52.160;-0.428;2023-04-04T04:42:04;2.20;99.90
20744;DHT22;56303;52.160;-0.428;2023-04-04T04:44:30;2.30;99.90
20744;DHT22;56303;52.160;-0.428;2023-04-04T04:46:58;3.90;99.90
20744;DHT22;56303;52.160;-0.428;2023-04-04T04:49:26;2.20;99.90
20744;DHT22;56303;52.160;-0.428;2023-04-04T04:51:53;2.30;99.90
20744;DHT22;56303;52.160;-0.428;2023-04-04T04:54:20;2.20;99.90
20744;DHT22;56303;52.160;-0.428;2023-04-04T04:56:46;2.20;99.90
20744;DHT22;56303;52.160;-0.428;2023-04-04T04:59:15;2.50;99.90
20744;DHT22;56303;52.160;-0.428;2023-04-04T05:01:42;2.40;99.90
20744;DHT22;56303;52.160;-0.428;2023-04-04T05:04:09;2.20;99.90
20744;DHT22;56303;52.160;-0.428;2023-04-04T05:06:36;1.90;99.90
20744;DHT22;56303;52.160;-0.428;2023-04-04T05:09:03;1.70;99.90
20744;DHT22;56303;52.160;-0.428;2023-04-04T05:11:30;1.60;99.90
20744;DHT22;56303;52.160;-0.428;2023-04-04T05:13:57;1.50;99.90
20744;DHT22;56303;52.160;-0.428;2023-04-04T05:16:24;1.50;99.90
20744;DHT22;56303;52.160;-0.428;2023-04-04T05:18:51;1.40;99.90
20744;DHT22;56303;52.160;-0.428;2023-04-04T05:21:18;1.40;99.90
20744;DHT22;56303;52.160;-0.428;2023-04-04T05:23:46;1.30;99.90
20744;DHT22;56303;52.160;-0.428;2023-04-04T05:26:14;1.20;99.90
20744;DHT22;56303;52.160;-0.428;2023-04-04T05:28:41;1.30;99.90
20744;DHT22;56303;52.160;-0.428;2023-04-04T05:31:08;1.30;99.90
20744;DHT22;56303;52.160;-0.428;2023-04-04T05:33:34;1.40;99.90
20744;DHT22;56303;52.160;-0.428;2023-04-04T05:36:01;1.40;99.90
20744;DHT22;56303;52.160;-0.428;2023-04-04T05:38:29;1.30;99.90
20744;DHT22;56303;52.160;-0.428;2023-04-04T05:40:57;1.20;99.90
20744;DHT22;56303;52.160;-0.428;2023-04-04T05:43:24;2.20;99.90
20744;DHT22;56303;52.160;-0.428;2023-04-04T05:45:51;1.40;99.90
20744;DHT22;56303;52.160;-0.428;2023-04-04T05:48:18;2.60;99.90
20744;DHT22;56303;52.160;-0.428;2023-04-04T05:50:44;1.70;99.90
20744;DHT22;56303;52.160;-0.428;2023-04-04T05:53:12;1.90;99.90
20744;DHT22;56303;52.160;-0.428;2023-04-04T05:55:39;2.00;99.90
20744;DHT22;56303;52.160;-0.428;2023-04-04T05:58:06;1.90;99.90
20744;DHT22;56303;52.160;-0.428;2023-04-04T06:00:33;1.90;99.90
20744;DHT22;56303;52.160;-0.428;2023-04-04T06:03:00;2.10;99.90
20744;DHT22;56303;52.160;-0.428;2023-04-04T06:05:29;2.30;99.90
20744;DHT22;56303;52.160;-0.428;2023-04-04T06:07:55;2.30;99.90
20744;DHT22;56303;52.160;-0.428;2023-04-04T06:10:23;2.20;99.90
20744;DHT22;56303;52.160;-0.428;2023-04-04T06:12:50;2.20;99.90
20744;DHT22;56303;52.160;-0.428;2023-04-04T06:15:17;2.20;99.90
20744;DHT22;56303;52.160;-0.428;2023-04-04T06:17:44;2.30;99.90
20744;DHT22;56303;52.160;-0.428;2023-04-04T06:20:11;2.20;99.90
20744;DHT22;56303;52.160;-0.428;2023-04-04T06:22:38;2.20;99.90
20744;DHT22;56303;52.160;-0.428;2023-04-04T06:25:06;2.30;99.90
20744;DHT22;56303;52.160;-0.428;2023-04-04T06:27:36;2.20;99.90
20744;DHT22;56303;52.160;-0.428;2023-04-04T06:30:05;2.20;99.90
20744;DHT22;56303;52.160;-0.428;2023-04-04T06:32:34;2.20;99.90
20744;DHT22;56303;52.160;-0.428;2023-04-04T06:35:01;2.20;99.90
20744;DHT22;56303;52.160;-0.428;2023-04-04T06:37:27;2.10;99.90
20744;DHT22;56303;52.160;-0.428;2023-04-04T06:39:54;2.10;99.90
20744;DHT22;56303;52.160;-0.428;2023-04-04T06:42:21;2.10;99.90
20744;DHT22;56303;52.160;-0.428;2023-04-04T06:44:49;2.10;99.90
20744;DHT22;56303;52.160;-0.428;2023-04-04T06:47:18;2.30;99.90
20744;DHT22;56303;52.160;-0.428;2023-04-04T06:49:46;2.30;99.90
20744;DHT22;56303;52.160;-0.428;2023-04-04T06:52:13;2.40;99.90
20744;DHT22;56303;52.160;-0.428;2023-04-04T06:54:40;2.50;99.90
20744;DHT22;56303;52.160;-0.428;2023-04-04T06:57:07;2.80;99.90
20744;DHT22;56303;52.160;-0.428;2023-04-04T06:59:33;2.90;99.90
20744;DHT22;56303;52.160;-0.428;2023-04-04T07:02:00;3.00;99.90
20744;DHT22;56303;52.160;-0.428;2023-04-04T07:04:27;3.10;99.90
20744;DHT22;56303;52.160;-0.428;2023-04-04T07:06:55;3.20;99.90
20744;DHT22;56303;52.160;-0.428;2023-04-04T07:09:22;4.70;99.90
20744;DHT22;56303;52.160;-0.428;2023-04-04T07:11:55;3.60;99.90
20744;DHT22;56303;52.160;-0.428;2023-04-04T07:14:22;3.70;99.90
20744;DHT22;56303;52.160;-0.428;2023-04-04T07:16:51;3.80;99.90
20744;DHT22;56303;52.160;-0.428;2023-04-04T07:19:18;3.80;99.90
20744;DHT22;56303;52.160;-0.428;2023-04-04T07:21:45;4.00;99.90
20744;DHT22;56303;52.160;-0.428;2023-04-04T07:24:12;4.20;99.90
20744;DHT22;56303;52.160;-0.428;2023-04-04T07:26:39;4.30;99.90
20744;DHT22;56303;52.160;-0.428;2023-04-04T07:29:06;4.20;99.90
20744;DHT22;56303;52.160;-0.428;2023-04-04T07:31:33;4.40;99.90
20744;DHT22;56303;52.160;-0.428;2023-04-04T07:34:00;4.80;99.90
20744;DHT22;56303;52.160;-0.428;2023-04-04T07:36:27;4.30;99.90
20744;DHT22;56303;52.160;-0.428;2023-04-04T07:38:54;4.10;99.90
20744;DHT22;56303;52.160;-0.428;2023-04-04T07:41:22;4.20;99.90
20744;DHT22;56303;52.160;-0.428;2023-04-04T07:43:49;4.30;99.90
20744;DHT22;56303;52.160;-0.428;2023-04-04T07:46:15;4.50;99.90
20744;DHT22;56303;52.160;-0.428;2023-04-04T07:48:43;4.30;99.90
20744;DHT22;56303;52.160;-0.428;2023-04-04T07:51:10;4.10;99.90
20744;DHT22;56303;52.160;-0.428;2023-04-04T07:53:36;4.50;99.90
20744;DHT22;56303;52.160;-0.428;2023-04-04T07:56:03;4.60;99.90
20744;DHT22;56303;52.160;-0.428;2023-04-04T07:58:34;4.70;99.90
20744;DHT22;56303;52.160;-0.428;2023-04-04T08:01:02;4.70;99.90
20744;DHT22;56303;52.160;-0.428;2023-04-04T08:03:29;5.20;99.90
20744;DHT22;56303;52.160;-0.428;2023-04-04T08:05:56;5.10;99.90
20744;DHT22;56303;52.160;-0.428;2023-04-04T08:08:23;5.10;99.90
20744;DHT22;56303;52.160;-0.428;2023-04-04T08:10:50;5.10;99.90
20744;DHT22;56303;52.160;-0.428;2023-04-04T08:13:17;5.60;99.90
20744;DHT22;56303;52.160;-0.428;2023-04-04T08:15:44;5.80;99.90
20744;DHT22;56303;52.160;-0.428;2023-04-04T08:18:11;6.60;99.90
20744;DHT22;56303;52.160;-0.428;2023-04-04T08:20:38;6.00;99.90
20744;DHT22;56303;52.160;-0.428;2023-04-04T08:23:05;6.00;99.90
20744;DHT22;56303;52.160;-0.428;2023-04-04T08:25:32;6.10;99.90
20744;DHT22;56303;52.160;-0.428;2023-04-04T08:28:01;6.10;99.90
20744;DHT22;56303;52.160;-0.428;2023-04-04T08:30:31;6.20;99.90
20744;DHT22;56303;52.160;-0.428;2023-04-04T08:32:58;6.40;99.90
20744;DHT22;56303;52.160;-0.428;2023-04-04T08:35:24;6.90;99.90
20744;DHT22;56303;52.160;-0.428;2023-04-04T08:37:51;6.40;99.90
20744;DHT22;56303;52.160;-0.428;2023-04-04T08:40:18;6.60;99.90
20744;DHT22;56303;52.160;-0.428;2023-04-04T08:42:45;6.80;99.90
20744;DHT22;56303;52.160;-0.428;2023-04-04T08:45:16;7.20;99.90
20744;DHT22;56303;52.160;-0.428;2023-04-04T08:47:45;7.80;99.90
20744;DHT22;56303;52.160;-0.428;2023-04-04T08:50:15;7.50;99.90
20744;DHT22;56303;52.160;-0.428;2023-04-04T08:52:43;7.50;99.90
20744;DHT22;56303;52.160;-0.428;2023-04-04T08:55:11;8.00;99.90
20744;DHT22;56303;52.160;-0.428;2023-04-04T08:57:38;8.20;99.90
20744;DHT22;56303;52.160;-0.428;2023-04-04T09:00:05;8.50;99.90
20744;DHT22;56303;52.160;-0.428;2023-04-04T09:05:03;8.70;99.90
20744;DHT22;56303;52.160;-0.428;2023-04-04T09:07:34;8.50;99.90
20744;DHT22;56303;52.160;-0.428;2023-04-04T09:10:07;8.40;99.90
20744;DHT22;56303;52.160;-0.428;2023-04-04T09:12:40;8.60;99.90
20744;DHT22;56303;52.160;-0.428;2023-04-04T09:15:10;8.60;99.90
20744;DHT22;56303;52.160;-0.428;2023-04-04T09:17:37;8.60;99.90
20744;DHT22;56303;52.160;-0.428;2023-04-04T09:20:40;8.40;99.90
20744;DHT22;56303;52.160;-0.428;2023-04-04T09:23:10;7.70;99.90
20744;DHT22;56303;52.160;-0.428;2023-04-04T09:25:47;8.90;99.90
20744;DHT22;56303;52.160;-0.428;2023-04-04T09:28:20;8.70;99.90
20744;DHT22;56303;52.160;-0.428;2023-04-04T09:30:49;8.70;99.90
20744;DHT22;56303;52.160;-0.428;2023-04-04T09:33:17;9.30;99.90
20744;DHT22;56303;52.160;-0.428;2023-04-04T09:35:48;9.50;99.90
20744;DHT22;56303;52.160;-0.428;2023-04-04T09:38:23;9.50;99.90
20744;DHT22;56303;52.160;-0.428;2023-04-04T09:40:51;9.60;99.90
20744;DHT22;56303;52.160;-0.428;2023-04-04T09:43:22;9.10;99.90
20744;DHT22;56303;52.160;-0.428;2023-04-04T09:45:53;9.00;99.90
20744;DHT22;56303;52.160;-0.428;2023-04-04T09:48:29;9.20;99.90
20744;DHT22;56303;52.160;-0.428;2023-04-04T09:51:05;9.40;99.90
20744;DHT22;56303;52.160;-0.428;2023-04-04T09:53:41;9.80;99.90
20744;DHT22;56303;52.160;-0.428;2023-04-04T09:56:21;10.10;99.90
20744;DHT22;56303;52.160;-0.428;2023-04-04T09:58:48;10.10;99.90
20744;DHT22;56303;52.160;-0.428;2023-04-04T10:01:29;10.40;99.90
20744;DHT22;56303;52.160;-0.428;2023-04-04T10:03:57;10.20;99.90
20744;DHT22;56303;52.160;-0.428;2023-04-04T10:06:24;10.30;99.90
20744;DHT22;56303;52.160;-0.428;2023-04-04T10:08:52;10.30;99.90
20744;DHT22;56303;52.160;-0.428;2023-04-04T10:11:32;10.40;99.90
20744;DHT22;56303;52.160;-0.428;2023-04-04T10:14:01;9.90;99.90
20744;DHT22;56303;52.160;-0.428;2023-04-04T10:16:32;9.90;99.90
20744;DHT22;56303;52.160;-0.428;2023-04-04T10:19:00;10.00;99.90
20744;DHT22;56303;52.160;-0.428;2023-04-04T10:21:28;10.20;99.90
20744;DHT22;56303;52.160;-0.428;2023-04-04T10:23:57;10.40;99.90
20744;DHT22;56303;52.160;-0.428;2023-04-04T10:26:25;10.60;99.90
20744;DHT22;56303;52.160;-0.428;2023-04-04T10:28:52;11.00;99.90
20744;DHT22;56303;52.160;-0.428;2023-04-04T10:31:24;10.90;99.90
20744;DHT22;56303;52.160;-0.428;2023-04-04T10:34:38;11.50;99.90
20744;DHT22;56303;52.160;-0.428;2023-04-04T10:37:07;11.90;99.90
20744;DHT22;56303;52.160;-0.428;2023-04-04T10:39:50;12.20;99.90
20744;DHT22;56303;52.160;-0.428;2023-04-04T10:42:18;11.30;99.90
20744;DHT22;56303;52.160;-0.428;2023-04-04T10:44:46;11.10;99.90
20744;DHT22;56303;52.160;-0.428;2023-04-04T10:47:17;11.30;99.90
20744;DHT22;56303;52.160;-0.428;2023-04-04T10:49:48;11.50;99.90
20744;DHT22;56303;52.160;-0.428;2023-04-04T10:52:21;11.50;99.90
20744;DHT22;56303;52.160;-0.428;2023-04-04T10:54:51;11.80;99.90
20744;DHT22;56303;52.160;-0.428;2023-04-04T10:57:19;11.70;99.90
20744;DHT22;56303;52.160;-0.428;2023-04-04T10:59:56;12.30;99.90
20744;DHT22;56303;52.160;-0.428;2023-04-04T11:02:44;12.50;99.90
20744;DHT22;56303;52.160;-0.428;2023-04-04T11:05:17;12.70;99.90
20744;DHT22;56303;52.160;-0.428;2023-04-04T11:07:45;12.50;99.90
20744;DHT22;56303;52.160;-0.428;2023-04-04T11:10:37;12.30;99.90
20744;DHT22;56303;52.160;-0.428;2023-04-04T11:13:16;12.70;99.90
20744;DHT22;56303;52.160;-0.428;2023-04-04T11:16:04;13.00;99.90
20744;DHT22;56303;52.160;-0.428;2023-04-04T11:21:31;12.80;99.90
20744;DHT22;56303;52.160;-0.428;2023-04-04T11:29:00;12.90;99.90
20744;DHT22;56303;52.160;-0.428;2023-04-04T11:31:33;13.40;99.90
20744;DHT22;56303;52.160;-0.428;2023-04-04T11:41:48;14.10;99.90
20744;DHT22;56303;52.160;-0.428;2023-04-04T11:44:17;14.30;99.90
20744;DHT22;56303;52.160;-0.428;2023-04-04T11:46:44;14.50;99.90
20744;DHT22;56303;52.160;-0.428;2023-04-04T11:49:16;14.20;99.90
20744;DHT22;56303;52.160;-0.428;2023-04-04T11:51:44;14.40;99.90
20744;DHT22;56303;52.160;-0.428;2023-04-04T11:54:16;14.90;99.90
20744;DHT22;56303;52.160;-0.428;2023-04-04T11:56:44;14.80;99.90
20744;DHT22;56303;52.160;-0.428;2023-04-04T11:59:12;14.80;99.90
20744;DHT22;56303;52.160;-0.428;2023-04-04T12:01:40;15.10;99.90
20744;DHT22;56303;52.160;-0.428;2023-04-04T12:04:08;15.60;99.90
20744;DHT22;56303;52.160;-0.428;2023-04-04T12:06:36;16.20;99.90
20744;DHT22;56303;52.160;-0.428;2023-04-04T12:09:04;16.00;99.30
20744;DHT22;56303;52.160;-0.428;2023-04-04T12:11:35;15.30;99.90
20744;DHT22;56303;52.160;-0.428;2023-04-04T12:14:03;15.60;99.90
20744;DHT22;56303;52.160;-0.428;2023-04-04T12:16:30;15.70;98.70
20744;DHT22;56303;52.160;-0.428;2023-04-04T12:19:00;15.50;99.20
20744;DHT22;56303;52.160;-0.428;2023-04-04T12:21:30;14.40;98.80
20744;DHT22;56303;52.160;-0.428;2023-04-04T12:23:58;16.50;99.90
20744;DHT22;56303;52.160;-0.428;2023-04-04T12:26:25;16.80;98.90
20744;DHT22;56303;52.160;-0.428;2023-04-04T12:28:55;16.50;98.90
20744;DHT22;56303;52.160;-0.428;2023-04-04T12:31:27;16.40;99.90
20744;DHT22;56303;52.160;-0.428;2023-04-04T12:33:55;16.30;98.60
20744;DHT22;56303;52.160;-0.428;2023-04-04T12:36:27;15.80;99.90
20744;DHT22;56303;52.160;-0.428;2023-04-04T12:39:04;16.70;98.10
20744;DHT22;56303;52.160;-0.428;2023-04-04T12:41:32;16.40;99.90
20744;DHT22;56303;52.160;-0.428;2023-04-04T12:44:04;15.70;99.90
20744;DHT22;56303;52.160;-0.428;2023-04-04T12:46:37;16.50;99.90
20744;DHT22;56303;52.160;-0.428;2023-04-04T12:49:10;17.00;98.00
20744;DHT22;56303;52.160;-0.428;2023-04-04T12:51:37;17.10;96.80
20744;DHT22;56303;52.160;-0.428;2023-04-04T12:54:05;17.80;97.80
20744;DHT22;56303;52.160;-0.428;2023-04-04T12:56:35;17.20;97.40
20744;DHT22;56303;52.160;-0.428;2023-04-04T12:59:03;17.20;98.20
20744;DHT22;56303;52.160;-0.428;2023-04-04T13:01:31;18.10;97.40
20744;DHT22;56303;52.160;-0.428;2023-04-04T13:04:01;18.20;96.50
20744;DHT22;56303;52.160;-0.428;2023-04-04T13:06:30;18.40;96.80
20744;DHT22;56303;52.160;-0.428;2023-04-04T13:08:59;18.70;97.20
20744;DHT22;56303;52.160;-0.428;2023-04-04T13:14:27;18.80;95.70
20744;DHT22;56303;52.160;-0.428;2023-04-04T13:17:05;16.80;97.80
20744;DHT22;56303;52.160;-0.428;2023-04-04T13:19:34;16.50;98.70
20744;DHT22;56303;52.160;-0.428;2023-04-04T13:22:01;17.30;98.50
20744;DHT22;56303;52.160;-0.428;2023-04-04T13:24:28;18.20;97.90
20744;DHT22;56303;52.160;-0.428;2023-04-04T13:26:55;18.80;95.90
20744;DHT22;56303;52.160;-0.428;2023-04-04T13:29:22;19.80;94.20
20744;DHT22;56303;52.160;-0.428;2023-04-04T13:31:50;19.80;95.30
20744;DHT22;56303;52.160;-0.428;2023-04-04T13:34:22;19.60;95.30
20744;DHT22;56303;52.160;-0.428;2023-04-04T13:36:52;20.40;93.60
20744;DHT22;56303;52.160;-0.428;2023-04-04T13:39:19;20.20;94.50
20744;DHT22;56303;52.160;-0.428;2023-04-04T13:41:46;19.60;94.60
20744;DHT22;56303;52.160;-0.428;2023-04-04T13:44:13;18.40;95.40
20744;DHT22;56303;52.160;-0.428;2023-04-04T13:46:42;18.40;95.80
20744;DHT22;56303;52.160;-0.428;2023-04-04T13:49:09;19.30;95.90
20744;DHT22;56303;52.160;-0.428;2023-04-04T13:51:37;20.10;92.70
20744;DHT22;56303;52.160;-0.428;2023-04-04T13:54:03;20.10;93.80
20744;DHT22;56303;52.160;-0.428;2023-04-04T13:56:30;20.00;94.50
20744;DHT22;56303;52.160;-0.428;2023-04-04T13:58:57;20.70;94.10
20744;DHT22;56303;52.160;-0.428;2023-04-04T14:01:24;20.30;93.60
20744;DHT22;56303;52.160;-0.428;2023-04-04T14:03:51;18.10;95.30
20744;DHT22;56303;52.160;-0.428;2023-04-04T14:06:18;18.50;93.70
20744;DHT22;56303;52.160;-0.428;2023-04-04T14:08:45;18.30;93.60
20744;DHT22;56303;52.160;-0.428;2023-04-04T14:11:13;18.70;94.60
20744;DHT22;56303;52.160;-0.428;2023-04-04T14:13:40;18.40;94.30
20744;DHT22;56303;52.160;-0.428;2023-04-04T14:16:08;17.40;96.10
20744;DHT22;56303;52.160;-0.428;2023-04-04T14:18:35;18.00;95.40
20744;DHT22;56303;52.160;-0.428;2023-04-04T14:21:02;19.40;95.10
20744;DHT22;56303;52.160;-0.428;2023-04-04T14:23:30;19.00;95.10
20744;DHT22;56303;52.160;-0.428;2023-04-04T14:25:58;19.90;94.50
20744;DHT22;56303;52.160;-0.428;2023-04-04T14:28:25;19.00;94.40
20744;DHT22;56303;52.160;-0.428;2023-04-04T14:30:52;19.30;93.60
20744;DHT22;56303;52.160;-0.428;2023-04-04T14:33:19;20.10;92.00
20744;DHT22;56303;52.160;-0.428;2023-04-04T14:35:45;19.80;93.10
20744;DHT22;56303;52.160;-0.428;2023-04-04T14:38:12;19.40;94.80
20744;DHT22;56303;52.160;-0.428;2023-04-04T14:40:39;20.40;93.40
20744;DHT22;56303;52.160;-0.428;2023-04-04T14:43:06;20.90;92.60
20744;DHT22;56303;52.160;-0.428;2023-04-04T14:45:33;20.10;92.90
20744;DHT22;56303;52.160;-0.428;2023-04-04T14:48:00;21.00;92.80
20744;DHT22;56303;52.160;-0.428;2023-04-04T14:50:27;22.10;91.70
20744;DHT22;56303;52.160;-0.428;2023-04-04T14:52:54;23.20;91.30
20744;DHT22;56303;52.160;-0.428;2023-04-04T14:55:22;20.70;92.60
20744;DHT22;56303;52.160;-0.428;2023-04-04T14:57:51;21.30;91.90
20744;DHT22;56303;52.160;-0.428;2023-04-04T15:00:29;22.40;91.60
20744;DHT22;56303;52.160;-0.428;2023-04-04T15:02:56;21.90;89.60
20744;DHT22;56303;52.160;-0.428;2023-04-04T15:05:24;21.70;90.50
20744;DHT22;56303;52.160;-0.428;2023-04-04T15:07:52;21.60;90.00
20744;DHT22;56303;52.160;-0.428;2023-04-04T15:10:20;21.20;91.20
20744;DHT22;56303;52.160;-0.428;2023-04-04T15:12:47;21.00;91.90
20744;DHT22;56303;52.160;-0.428;2023-04-04T15:15:14;21.00;92.40
20744;DHT22;56303;52.160;-0.428;2023-04-04T15:17:41;21.70;92.30
20744;DHT22;56303;52.160;-0.428;2023-04-04T15:20:08;21.00;90.90
20744;DHT22;56303;52.160;-0.428;2023-04-04T15:22:35;20.70;91.40
20744;DHT22;56303;52.160;-0.428;2023-04-04T15:25:04;21.20;91.70
20744;DHT22;56303;52.160;-0.428;2023-04-04T15:27:31;21.40;92.00
20744;DHT22;56303;52.160;-0.428;2023-04-04T15:29:58;21.40;90.80
20744;DHT22;56303;52.160;-0.428;2023-04-04T15:32:25;21.50;90.40
20744;DHT22;56303;52.160;-0.428;2023-04-04T15:34:52;22.70;91.00
20744;DHT22;56303;52.160;-0.428;2023-04-04T15:37:20;21.40;91.60
20744;DHT22;56303;52.160;-0.428;2023-04-04T15:39:47;20.80;92.20
20744;DHT22;56303;52.160;-0.428;2023-04-04T15:42:19;21.30;92.20
20744;DHT22;56303;52.160;-0.428;2023-04-04T15:44:46;21.30;91.10
20744;DHT22;56303;52.160;-0.428;2023-04-04T15:47:15;22.50;91.50
20744;DHT22;56303;52.160;-0.428;2023-04-04T15:49:42;22.40;90.60
20744;DHT22;56303;52.160;-0.428;2023-04-04T15:52:09;22.50;92.40
20744;DHT22;56303;52.160;-0.428;2023-04-04T15:54:35;22.10;91.50
20744;DHT22;56303;52.160;-0.428;2023-04-04T15:57:04;21.80;91.30